Time;durP1;ratioP1;P1;durP2;ratioP2;P2;SDS_P1;SDS_P2;PMS_P1;PMS_P2;Temp;Humidity;BMP_temperature;BMP_pressure;BME280_temperature;BME280_humidity;BME280_pressure;Samples;Min_cycle;Max_cycle;Signal;HPM_P1;HPM_P2
2023/03/22 00:01:45;;;;;;;58.07;34.07;;;;;;;10.83;65.79;100337.72;123879;1105;104300;-73
2023/03/22 00:04:16;;;;;;;55.40;31.43;;;;;;;10.84;65.67;100347.39;123923;1105;102418;-72
2023/03/22 00:06:47;;;;;;;55.97;32.90;;;;;;;10.81;65.78;100344.66;123939;1103;103018;-73
2023/03/22 00:09:18;;;;;;;56.97;35.10;;;;;;;10.74;65.92;100344.46;123903;1103;104352;-73
2023/03/22 00:11:50;;;;;;;60.57;36.87;;;;;;;10.69;65.66;100340.80;123974;1105;101961;-73
2023/03/22 00:14:21;;;;;;;63.10;36.70;;;;;;;10.64;66.24;100344.99;123929;1105;104379;-73
2023/03/22 00:16:53;;;;;;;62.27;35.63;;;;;;;10.58;66.07;100347.41;124016;1104;103652;-73
2023/03/22 00:19:25;;;;;;;59.60;35.77;;;;;;;10.53;66.60;100349.00;123953;1105;104192;-73
2023/03/22 00:21:56;;;;;;;60.17;34.87;;;;;;;10.48;66.63;100353.21;123983;1105;102018;-72
2023/03/22 00:24:27;;;;;;;52.60;33.27;;;;;;;10.41;66.63;100355.63;123939;1105;104294;-72
2023/03/22 00:26:59;;;;;;;61.50;33.53;;;;;;;10.38;66.71;100355.52;123985;1105;104201;-72
2023/03/22 00:29:30;;;;;;;53.77;32.80;;;;;;;10.36;66.64;100357.21;123951;1105;104255;-72
2023/03/22 00:32:01;;;;;;;51.77;31.40;;;;;;;10.33;66.85;100351.86;123955;1105;102171;-72
2023/03/22 00:34:34;;;;;;;54.83;30.93;;;;;;;10.34;66.75;100348.38;123996;1105;104534;-72
2023/03/22 00:37:07;;;;;;;52.77;31.43;;;;;;;10.34;66.91;100350.12;124220;1105;104207;-72
2023/03/22 00:39:38;;;;;;;54.87;31.27;;;;;;;10.33;67.16;100357.11;123980;1103;104194;-72
2023/03/22 00:42:10;;;;;;;49.67;29.90;;;;;;;10.32;67.22;100354.39;124232;1105;104338;-72
2023/03/22 00:44:42;;;;;;;51.60;30.37;;;;;;;10.30;67.45;100351.72;123975;1105;104274;-72
2023/03/22 00:47:13;;;;;;;50.37;30.10;;;;;;;10.30;66.85;100349.09;123978;1105;104063;-73
2023/03/22 00:49:44;;;;;;;52.90;32.07;;;;;;;10.30;67.28;100351.72;123960;1104;104224;-72
2023/03/22 00:52:16;;;;;;;49.30;27.93;;;;;;;10.30;67.20;100353.43;123882;1105;104214;-73
2023/03/22 00:54:47;;;;;;;49.10;28.75;;;;;;;10.28;67.26;100345.51;123953;1105;104185;-72
2023/03/22 00:57:19;;;;;;;53.87;29.93;;;;;;;10.28;67.58;100349.88;123954;1105;102519;-73
2023/03/22 00:59:52;;;;;;;50.23;28.37;;;;;;;10.26;67.69;100344.57;123945;1105;104444;-72
2023/03/22 01:02:28;;;;;;;52.60;30.12;;;;;;;10.22;67.36;100342.67;124427;1105;104309;-72
2023/03/22 01:04:59;;;;;;;49.70;28.93;;;;;;;10.18;67.77;100343.42;124011;1105;104654;-72
2023/03/22 01:07:31;;;;;;;52.07;29.80;;;;;;;10.15;68.04;100343.31;123997;1105;104220;-72
2023/03/22 01:10:02;;;;;;;47.37;27.70;;;;;;;10.10;67.21;100345.78;124012;1105;103040;-72
2023/03/22 01:12:33;;;;;;;46.37;27.63;;;;;;;10.04;67.27;100338.58;124779;1103;102181;-73
2023/03/22 01:15:06;;;;;;;48.87;29.40;;;;;;;10.01;67.30;100338.47;124021;1105;104281;-72
2023/03/22 01:17:37;;;;;;;50.10;27.97;;;;;;;9.99;67.52;100340.16;124019;1105;104248;-73
2023/03/22 01:20:11;;;;;;;47.10;29.17;;;;;;;9.98;68.04;100335.73;124000;1104;104306;-72
2023/03/22 01:22:42;;;;;;;48.80;28.13;;;;;;;9.94;67.47;100336.48;123968;1104;104236;-73
2023/03/22 01:25:15;;;;;;;54.63;30.50;;;;;;;9.95;67.76;100335.63;123905;1105;104472;-73
2023/03/22 01:27:46;;;;;;;54.43;30.83;;;;;;;9.95;68.26;100342.61;123906;1105;104243;-73
2023/03/22 01:30:17;;;;;;;53.33;30.30;;;;;;;9.94;68.39;100332.95;123939;1105;104238;-73
2023/03/22 01:32:49;;;;;;;50.20;30.77;;;;;;;9.88;68.08;100339.77;123944;1105;104211;-73
2023/03/22 01:35:21;;;;;;;52.10;32.17;;;;;;;9.83;68.21;100343.05;124004;1105;101989;-72
2023/03/22 01:37:52;;;;;;;49.67;30.23;;;;;;;9.77;67.76;100334.97;123944;1105;104233;-73
2023/03/22 01:40:24;;;;;;;48.93;30.57;;;;;;;9.75;68.35;100341.89;123951;1105;101903;-73
2023/03/22 01:42:56;;;;;;;50.57;30.33;;;;;;;9.73;68.30;100340.95;123943;1105;104205;-73
2023/03/22 01:45:39;;;;;;;49.50;28.43;;;;;;;9.69;68.48;100343.46;123980;1105;101910;-73
2023/03/22 01:48:33;;;;;;;52.53;28.80;;;;;;;9.65;68.36;100332.81;124925;1105;104163;-73
2023/03/22 01:51:09;;;;;;;45.07;26.23;;;;;;;9.58;68.47;100338.65;123897;1105;103061;-73
2023/03/22 01:53:59;;;;;;;48.30;27.43;;;;;;;9.49;68.00;100333.95;124031;1105;101916;-73
2023/03/22 01:56:35;;;;;;;42.27;25.60;;;;;;;9.42;68.45;100330.22;123935;1105;104274;-73
2023/03/22 01:59:07;;;;;;;46.63;26.07;;;;;;;9.38;68.48;100340.52;123968;1106;104204;-73
2023/03/22 02:01:53;;;;;;;45.10;25.93;;;;;;;9.33;68.81;100342.95;123909;1105;104251;-73
2023/03/22 02:04:32;;;;;;;45.47;26.03;;;;;;;9.31;68.73;100332.43;123885;1105;104373;-73
2023/03/22 02:07:14;;;;;;;47.63;27.33;;;;;;;9.27;68.82;100337.48;124512;1105;104182;-73
2023/03/22 02:09:45;;;;;;;44.70;26.10;;;;;;;9.23;68.76;100339.11;124059;1105;104236;-73
2023/03/22 02:12:29;;;;;;;42.13;25.40;;;;;;;9.19;68.20;100334.58;123977;1106;101928;-74
2023/03/22 02:15:14;;;;;;;43.67;25.63;;;;;;;9.12;68.28;100337.80;123982;1105;104265;-73
2023/03/22 02:18:19;;;;;;;43.33;24.47;;;;;;;9.08;68.26;100338.51;124039;1105;104256;-73
2023/03/22 02:21:37;;;;;;;45.63;24.97;;;;;;;9.06;68.58;100342.80;123953;1105;104281;-73
2023/03/22 02:24:37;;;;;;;45.10;24.20;;;;;;;8.99;69.00;100339.94;123900;1105;104274;-73
2023/03/22 02:27:26;;;;;;;41.83;24.57;;;;;;;8.95;68.82;100343.26;124001;1104;104217;-73
2023/03/22 02:30:09;;;;;;;43.83;24.67;;;;;;;8.89;68.74;100344.75;123942;1106;104345;-73
2023/03/22 02:33:03;;;;;;;43.53;24.63;;;;;;;8.83;69.14;100348.00;125227;1105;101836;-73
2023/03/22 02:36:03;;;;;;;47.53;25.10;;;;;;;8.75;68.75;100347.69;124020;1105;104236;-73
2023/03/22 02:39:15;;;;;;;47.60;24.47;;;;;;;8.68;69.24;100344.77;123996;1105;102070;-74
2023/03/22 02:42:04;;;;;;;46.27;26.17;;;;;;;8.62;69.20;100348.04;124042;1105;104287;-74
2023/03/22 02:44:42;;;;;;;50.80;26.67;;;;;;;8.60;69.39;100355.83;124059;1105;104371;-74
2023/03/22 02:47:24;;;;;;;44.07;26.10;;;;;;;8.61;68.88;100357.59;124020;1105;102002;-73
2023/03/22 02:50:03;;;;;;;44.43;25.60;;;;;;;8.64;69.13;100362.95;123979;1105;104315;-73
2023/03/22 02:52:40;;;;;;;47.03;26.83;;;;;;;8.60;69.49;100355.83;124057;1105;104243;-72
2023/03/22 02:55:19;;;;;;;44.70;25.97;;;;;;;8.58;69.31;100362.69;123957;1105;102476;-72
2023/03/22 02:57:56;;;;;;;41.30;25.83;;;;;;;8.57;69.61;100370.47;123999;1104;104326;-72
2023/03/22 03:00:28;;;;;;;45.83;25.93;;;;;;;8.58;69.23;100365.30;123958;1105;104258;-72
2023/03/22 03:03:10;;;;;;;44.40;25.13;;;;;;;8.57;69.71;100366.16;124039;1105;101890;-72
2023/03/22 03:05:44;;;;;;;43.20;26.13;;;;;;;8.58;69.17;100367.04;123930;1105;104195;-72
2023/03/22 03:08:20;;;;;;;44.27;25.67;;;;;;;8.54;69.80;100363.41;124022;1105;102401;-72
2023/03/22 03:10:53;;;;;;;43.43;24.37;;;;;;;8.51;69.42;100375.45;123944;1105;104300;-72
2023/03/22 03:13:24;;;;;;;43.17;25.70;;;;;;;8.45;69.80;100376.10;123858;1106;104368;-72
2023/03/22 03:15:59;;;;;;;44.60;25.57;;;;;;;8.37;69.23;100373.13;123895;1105;104374;-72
2023/03/22 03:18:44;;;;;;;45.63;25.73;;;;;;;8.28;69.58;100377.97;123970;1105;104361;-72
2023/03/22 03:21:31;;;;;;;47.70;26.23;;;;;;;8.21;69.97;100371.59;123911;1105;103391;-72
2023/03/22 03:24:20;;;;;;;46.63;25.47;;;;;;;8.15;69.71;100373.94;123894;1105;103404;-73
2023/03/22 03:26:59;;;;;;;43.50;25.00;;;;;;;8.12;69.98;100380.73;123949;1105;104105;-73
2023/03/22 03:29:38;;;;;;;48.27;27.57;;;;;;;8.10;69.74;100383.27;123906;1105;103696;-73
2023/03/22 03:32:15;;;;;;;49.90;26.10;;;;;;;8.10;70.04;100386.80;123993;1105;104179;-73
2023/03/22 03:34:50;;;;;;;45.53;25.23;;;;;;;8.11;69.95;100382.45;124031;1105;103664;-73
2023/03/22 03:37:26;;;;;;;45.63;26.77;;;;;;;8.08;70.13;100384.94;123977;1105;118928;-74
2023/03/22 03:40:05;;;;;;;41.70;24.70;;;;;;;8.00;70.59;100384.59;123874;1105;103436;-73
2023/03/22 03:42:38;;;;;;;45.70;24.97;;;;;;;7.93;70.56;100387.75;123945;1105;102269;-73
2023/03/22 03:45:12;;;;;;;44.03;25.03;;;;;;;7.87;70.30;100385.78;123916;1105;104338;-73
2023/03/22 03:47:45;;;;;;;42.80;25.68;;;;;;;7.83;70.47;100382.97;125099;1104;101843;-72
2023/03/22 03:50:17;;;;;;;47.03;24.67;;;;;;;7.77;70.50;100391.41;123944;1105;103564;-72
2023/03/22 03:52:49;;;;;;;46.07;24.70;;;;;;;7.71;70.19;100389.43;123842;1105;104392;-73
2023/03/22 03:55:21;;;;;;;43.37;25.63;;;;;;;7.67;70.35;100390.11;123877;1105;102245;-73
2023/03/22 03:57:52;;;;;;;45.13;25.53;;;;;;;7.64;70.57;100386.47;123877;1105;104230;-73
2023/03/22 04:00:24;;;;;;;42.90;25.77;;;;;;;7.60;70.43;100389.75;123918;1105;104296;-73
2023/03/22 04:03:21;;;;;;;45.73;26.20;;;;;;;7.55;70.37;100395.64;123927;1105;104265;-73
2023/03/22 04:06:18;;;;;;;45.70;25.65;;;;;;;7.50;71.12;100399.77;123910;1105;104345;-73
2023/03/22 04:08:52;;;;;;;46.53;26.33;;;;;;;7.48;71.37;100401.43;123915;1104;104063;-73
2023/03/22 04:11:27;;;;;;;45.43;25.83;;;;;;;7.44;71.01;100402.09;123970;1105;104277;-73
2023/03/22 04:14:02;;;;;;;46.60;25.43;;;;;;;7.40;71.08;100404.49;123938;1105;101999;-73
2023/03/22 04:16:33;;;;;;;48.20;26.97;;;;;;;7.36;71.57;100408.69;123935;1105;104313;-74
2023/03/22 04:19:05;;;;;;;49.90;26.80;;;;;;;7.32;71.13;100409.35;123886;1105;104223;-73
2023/03/22 04:21:36;;;;;;;53.97;28.60;;;;;;;7.26;71.52;100414.28;123928;1105;104302;-73
2023/03/22 04:24:09;;;;;;;48.13;26.47;;;;;;;7.23;71.23;100419.35;123942;1105;104281;-73
2023/03/22 04:26:42;;;;;;;45.77;25.57;;;;;;;7.19;71.87;100423.55;124151;1105;104223;-73
2023/03/22 04:29:35;;;;;;;44.53;26.00;;;;;;;7.14;71.48;100433.76;123995;1105;103391;-73
2023/03/22 04:32:21;;;;;;;44.83;25.73;;;;;;;7.09;71.88;100427.44;123941;1106;104689;-73
2023/03/22 04:34:52;;;;;;;;;;;;;;;7.05;72.01;100432.42;124011;1104;104272;-73
2023/03/22 04:37:25;;;;;;;45.90;26.30;;;;;;;7.01;71.67;100440.10;123874;1105;104185;-73
2023/03/22 04:40:15;;;;;;;46.13;26.23;;;;;;;7.02;71.88;100448.81;123918;1106;104341;-71
2023/03/22 04:43:02;;;;;;;45.47;25.50;;;;;;;7.02;72.04;100446.20;123864;1105;104373;-72
2023/03/22 04:46:00;;;;;;;45.77;26.27;;;;;;;7.01;71.86;100447.02;123884;1105;104642;-72
2023/03/22 04:48:36;;;;;;;44.17;25.67;;;;;;;7.01;71.83;100450.53;123883;1105;103150;-71
2023/03/22 04:51:10;;;;;;;47.60;25.63;;;;;;;7.02;72.01;100449.70;123910;1105;101878;-71
2023/03/22 04:53:46;;;;;;;46.83;27.13;;;;;;;7.02;72.59;100456.64;123862;1105;104201;-71
2023/03/22 04:56:17;;;;;;;47.50;26.87;;;;;;;7.01;72.46;100457.45;123887;1106;101936;-72
2023/03/22 04:58:51;;;;;;;49.20;28.83;;;;;;;7.03;72.42;100458.44;123871;1105;104268;-72
2023/03/22 05:01:22;;;;;;;49.93;28.25;;;;;;;7.06;72.14;100462.89;123898;1105;104310;-73
2023/03/22 05:04:00;;;;;;;50.03;26.83;;;;;;;7.10;72.32;100468.34;123880;1104;104395;-72
2023/03/22 05:06:33;;;;;;;45.80;26.00;;;;;;;7.16;72.66;100468.64;123920;1105;104264;-71
2023/03/22 05:09:12;;;;;;;48.50;26.23;;;;;;;7.19;72.60;100470.52;123899;1105;118674;-72
2023/03/22 05:11:44;;;;;;;45.30;26.33;;;;;;;7.25;72.26;100467.32;124127;1105;101845;-73
2023/03/22 05:14:42;;;;;;;46.87;26.30;;;;;;;7.27;72.39;100471.77;123822;1106;104192;-74
2023/03/22 05:17:15;;;;;;;47.83;27.73;;;;;;;7.28;72.56;100465.74;123864;1105;104389;-73
2023/03/22 05:19:47;;;;;;;48.33;27.20;;;;;;;7.34;72.59;100472.98;123898;1105;104210;-72
2023/03/22 05:22:21;;;;;;;51.63;28.10;;;;;;;7.37;73.06;100479.24;124391;1105;104281;-73
2023/03/22 05:24:54;;;;;;;50.10;26.67;;;;;;;7.41;73.24;100477.66;123895;1105;104332;-73
2023/03/22 05:27:33;;;;;;;48.68;27.67;;;;;;;7.46;72.80;100486.59;124475;1105;104242;-74
2023/03/22 05:30:25;;;;;;;50.73;27.50;;;;;;;7.50;73.03;100490.27;123740;1106;104730;-76
2023/03/22 05:33:03;;;;;;;50.63;25.73;;;;;;;7.49;73.20;100497.19;124121;1105;104204;-76
2023/03/22 05:35:40;;;;;;;49.07;27.00;;;;;;;7.50;73.38;100504.21;124037;1105;105704;-74
2023/03/22 05:38:10;;;;;;;;;;;;;;;7.51;73.47;100503.41;124066;1105;104082;-75
2023/03/22 05:40:45;;;;;;;52.33;26.73;;;;;;;7.60;73.31;100510.77;124108;1105;104252;-76
2023/03/22 05:43:20;;;;;;;52.85;29.95;;;;;;;7.63;74.04;100516.13;124972;1105;101849;-74
2023/03/22 05:45:53;;;;;;;50.80;29.37;;;;;;;7.70;73.31;100520.84;123923;1105;104294;-75
2023/03/22 05:48:38;;;;;;;50.90;29.90;;;;;;;7.79;73.74;100511.64;124044;1105;104351;-74
2023/03/22 05:51:12;;;;;;;52.30;28.47;;;;;;;7.89;73.51;100511.26;124122;1105;104467;-75
2023/03/22 05:53:44;;;;;;;51.08;29.48;;;;;;;7.95;74.16;100513.23;124021;1105;104227;-75
2023/03/22 05:56:22;;;;;;;51.67;28.80;;;;;;;8.04;74.22;100524.13;124116;1105;104280;-76
2023/03/22 05:58:57;;;;;;;49.07;27.73;;;;;;;8.15;74.16;100522.00;124174;1105;104316;-75
2023/03/22 06:01:28;;;;;;;49.05;27.50;;;;;;;8.26;73.90;100518.18;124027;1105;104207;-75
2023/03/22 06:04:13;;;;;;;54.50;29.20;;;;;;;8.40;73.95;100518.80;123994;1105;104236;-73
2023/03/22 06:06:54;;;;;;;48.83;28.13;;;;;;;8.56;73.86;100523.02;123987;1106;104291;-75
2023/03/22 06:09:42;;;;;;;48.70;28.50;;;;;;;8.69;74.27;100517.48;123976;1105;104326;-73
2023/03/22 06:12:21;;;;;;;51.60;28.53;;;;;;;8.84;73.91;100521.61;124324;1105;102376;-75
2023/03/22 06:15:01;;;;;;;47.57;28.93;;;;;;;9.00;74.36;100524.91;124432;1105;104351;-77
2023/03/22 06:18:03;;;;;;;51.53;30.07;;;;;;;9.22;73.70;100519.70;125271;1104;102805;-78
2023/03/22 06:20:38;;;;;;;53.73;29.80;;;;;;;9.40;74.15;100522.20;124540;1105;104224;-83
2023/03/22 06:23:16;;;;;;;52.90;30.07;;;;;;;9.54;73.83;100521.02;124332;1105;104192;-75
2023/03/22 06:25:51;;;;;;;52.27;30.13;;;;;;;9.69;73.89;100528.58;124584;1105;104297;-77
2023/03/22 06:28:22;;;;;;;49.25;28.80;;;;;;;9.84;73.84;100533.55;125309;1105;102161;-75
2023/03/22 06:30:55;;;;;;;52.50;30.67;;;;;;;9.98;73.72;100532.34;124105;1105;104361;-77
2023/03/22 06:33:38;;;;;;;50.57;29.93;;;;;;;10.11;73.22;100540.67;124117;1106;101872;-75
2023/03/22 06:36:20;;;;;;;50.23;28.77;;;;;;;10.18;72.86;100533.11;124041;1105;104220;-77
2023/03/22 06:39:11;;;;;;;50.33;28.57;;;;;;;10.27;72.71;100529.95;124645;1105;102076;-80
2023/03/22 06:41:44;;;;;;;47.40;29.57;;;;;;;10.35;73.25;100532.89;124795;1106;104258;-80
2023/03/22 06:44:16;;;;;;;51.57;30.57;;;;;;;10.42;72.90;100530.55;124666;1105;102925;-78
2023/03/22 06:47:04;;;;;;;52.17;30.57;;;;;;;10.55;72.80;100536.22;124531;1105;103388;-73
2023/03/22 06:49:48;;;;;;;48.10;27.70;;;;;;;10.74;72.79;100537.80;124268;1105;104332;-79
2023/03/22 06:52:24;;;;;;;48.27;28.97;;;;;;;10.87;72.43;100541.73;124192;1105;102237;-77
2023/03/22 06:54:57;;;;;;;52.20;30.13;;;;;;;10.97;72.66;100542.11;124048;1105;104366;-76
2023/03/22 06:57:29;;;;;;;47.73;28.07;;;;;;;11.14;72.47;100547.95;124325;1105;102732;-81
2023/03/22 07:00:03;;;;;;;49.37;29.23;;;;;;;11.28;72.04;100537.91;124071;1105;102187;-76
2023/03/22 07:02:33;;;;;;;;;;;;;;;11.41;71.04;100547.08;124120;1105;104233;-76
2023/03/22 07:05:17;;;;;;;46.80;28.87;;;;;;;11.54;71.47;100540.48;124810;1105;104252;-80
2023/03/22 07:07:49;;;;;;;51.67;29.30;;;;;;;11.73;71.57;100547.21;124460;1105;103581;-80
2023/03/22 07:10:21;;;;;;;47.97;29.17;;;;;;;11.88;71.42;100547.70;124256;1106;101869;-77
2023/03/22 07:13:01;;;;;;;46.43;28.47;;;;;;;12.07;70.93;100553.56;124262;1106;104261;-80
2023/03/22 07:15:33;;;;;;;;;;;;;;;12.20;70.96;100542.58;125270;1105;104316;-78
2023/03/22 07:18:08;;;;;;;47.53;28.10;;;;;;;12.39;70.47;100541.37;124358;1105;101909;-75
2023/03/22 07:20:47;;;;;;;49.40;28.93;;;;;;;12.50;70.33;100540.80;125410;1105;102045;-81
2023/03/22 07:23:21;;;;;;;49.57;29.37;;;;;;;12.65;70.25;100538.56;124656;1105;107064;-77
2023/03/22 07:26:04;;;;;;;45.10;27.77;;;;;;;12.88;70.32;100543.59;125407;1105;102073;-81
2023/03/22 07:28:43;;;;;;;47.80;29.25;;;;;;;13.06;69.83;100546.71;125157;1105;101912;-77
2023/03/22 07:31:19;;;;;;;45.93;27.43;;;;;;;13.18;69.31;100548.75;124649;1105;102177;-78
2023/03/22 07:34:09;;;;;;;50.57;27.83;;;;;;;13.24;69.44;100548.91;124399;1105;117900;-81
2023/03/22 07:37:08;;;;;;;43.47;27.13;;;;;;;13.28;69.17;100542.88;124477;1105;104182;-75
2023/03/22 07:39:59;;;;;;;48.87;28.87;;;;;;;13.40;69.42;100546.70;124131;1105;104278;-75
2023/03/22 07:42:38;;;;;;;47.35;27.80;;;;;;;13.46;68.45;100546.86;124388;1105;104111;-77
2023/03/22 07:45:36;;;;;;;51.87;29.60;;;;;;;13.53;68.38;100548.80;124352;1106;104208;-77
2023/03/22 07:48:40;;;;;;;47.40;28.90;;;;;;;13.58;67.39;100541.88;124156;1105;102133;-76
2023/03/22 07:51:32;;;;;;;47.67;28.70;;;;;;;13.73;68.30;100543.09;123901;1105;104099;-74
2023/03/22 07:54:06;;;;;;;46.43;29.97;;;;;;;13.84;67.34;100544.26;124000;1105;102292;-74
2023/03/22 07:56:38;;;;;;;47.57;30.40;;;;;;;13.93;67.48;100543.55;124041;1104;104182;-76
2023/03/22 07:59:09;;;;;;;50.37;31.20;;;;;;;13.98;67.11;100540.18;124253;1105;101921;-77
2023/03/22 08:01:43;;;;;;;48.87;29.83;;;;;;;14.06;67.32;100542.99;124407;1105;102261;-81
2023/03/22 08:04:25;;;;;;;51.23;29.52;;;;;;;14.11;66.47;100540.45;124458;1105;102233;-77
2023/03/22 08:07:08;;;;;;;47.67;28.40;;;;;;;14.07;66.75;100538.59;124331;1105;102431;-77
2023/03/22 08:09:45;;;;;;;48.43;30.30;;;;;;;14.06;65.57;100539.47;124231;1105;104207;-76
2023/03/22 08:12:17;;;;;;;52.00;29.20;;;;;;;14.11;66.52;100537.81;124363;1105;104181;-76
2023/03/22 08:14:53;;;;;;;53.50;29.33;;;;;;;14.14;65.85;100532.61;125218;1104;117780;-81
2023/03/22 08:17:41;;;;;;;50.00;30.57;;;;;;;14.14;65.16;100525.56;125516;1105;104182;-75
2023/03/22 08:20:31;;;;;;;47.87;29.60;;;;;;;14.16;65.13;100525.60;125087;1105;104217;-79
2023/03/22 08:23:06;;;;;;;48.23;29.60;;;;;;;14.28;66.02;100517.95;124448;1105;102049;-79
2023/03/22 08:26:21;;;;;;;45.67;29.97;;;;;;;14.37;65.48;100522.53;124378;1106;102421;-79
2023/03/22 08:28:54;;;;;;;52.23;32.03;;;;;;;14.45;65.36;100520.05;124324;1105;104327;-76
2023/03/22 08:31:54;;;;;;;;;;;;;;;;;;;;;
2023/03/22 08:34:40;;;;;;;50.70;31.23;;;;;;;14.60;65.31;100522.09;123925;1105;104181;-74
2023/03/22 08:37:25;;;;;;;50.00;31.77;;;;;;;14.68;64.74;100531.98;123904;1105;104238;-74
2023/03/22 08:40:00;;;;;;;48.33;30.40;;;;;;;14.71;64.68;100526.77;123983;1105;101839;-72
2023/03/22 08:42:59;;;;;;;56.53;32.40;;;;;;;14.71;63.67;100521.48;123966;1105;104198;-75
2023/03/22 08:45:57;;;;;;;54.10;31.33;;;;;;;14.74;64.05;100529.47;124167;1106;107627;-75
2023/03/22 08:48:59;;;;;;;;;;;;;;;;;;;;;
2023/03/22 08:52:07;;;;;;;47.37;29.40;;;;;;;14.75;62.78;100522.42;124277;1105;104246;-78
2023/03/22 08:55:21;;;;;;;;;;;;;;;;;;;;;
2023/03/22 08:58:09;;;;;;;48.80;29.35;;;;;;;14.86;63.26;100519.98;124399;1105;104179;-77
2023/03/22 09:01:26;;;;;;;49.00;30.27;;;;;;;14.94;62.72;100525.41;124447;1105;101980;-77
2023/03/22 09:04:17;;;;;;;47.93;30.13;;;;;;;14.96;61.91;100521.95;124142;1105;104203;-77
2023/03/22 09:06:58;;;;;;;47.45;30.10;;;;;;;14.90;61.97;100522.72;125135;1104;104185;-77
2023/03/22 09:09:44;;;;;;;50.83;30.92;;;;;;;14.97;61.49;100517.54;125279;1105;101987;-73
2023/03/22 09:13:01;;;;;;;;;;;;;;;;;;;;;
2023/03/22 09:16:18;;;;;;;48.47;29.47;;;;;;;15.05;61.10;100511.55;124085;1105;102016;-75
2023/03/22 09:18:53;;;;;;;44.97;29.17;;;;;;;15.20;62.07;100523.23;125171;1105;104270;-74
2023/03/22 09:21:29;;;;;;;46.67;28.97;;;;;;;15.24;61.03;100512.74;123918;1105;102121;-73
2023/03/22 09:24:19;;;;;;;47.20;28.50;;;;;;;15.34;60.45;100518.19;124064;1106;104300;-75
2023/03/22 09:27:00;;;;;;;47.37;30.00;;;;;;;15.35;61.07;100522.59;124593;1105;104255;-73
2023/03/22 09:29:32;;;;;;;47.13;29.23;;;;;;;15.39;59.96;100520.02;125223;1105;101971;-78
2023/03/22 09:32:07;;;;;;;45.77;28.80;;;;;;;15.51;60.70;100514.05;124169;1105;104259;-76
2023/03/22 09:35:03;;;;;;;46.60;27.93;;;;;;;15.61;60.75;100515.08;124300;1105;101836;-79
2023/03/22 09:37:44;;;;;;;47.20;27.80;;;;;;;15.73;60.26;100507.33;125912;1105;101697;-77
2023/03/22 09:40:41;;;;;;;47.10;26.67;;;;;;;15.81;59.10;100508.34;126049;1104;101952;-81
2023/03/22 09:43:39;;;;;;;47.10;27.57;;;;;;;15.89;60.17;100497.87;126249;1104;101704;-79
2023/03/22 09:46:41;;;;;;;44.73;29.07;;;;;;;15.99;60.03;100494.50;124969;1104;104218;-82
2023/03/22 10:04:18;;;;;;;40.87;24.50;;;;;;;16.36;58.88;100491.41;124219;1105;104178;-77
2023/03/22 10:07:34;;;;;;;36.70;22.77;;;;;;;16.43;58.98;100493.27;124346;1105;111526;-76
2023/03/22 10:10:26;;;;;;;41.13;23.83;;;;;;;16.51;58.70;100496.02;125140;1105;104323;-83
2023/03/22 10:13:14;;;;;;;38.30;24.40;;;;;;;16.57;58.94;100487.26;125236;1105;103042;-80
2023/03/22 10:19:55;;;;;;;40.33;23.17;;;;;;;16.69;57.56;100482.09;125851;1105;101798;-80
2023/03/22 10:22:34;;;;;;;38.15;23.95;;;;;;;16.70;57.59;100478.55;126796;1104;101830;-75
2023/03/22 10:25:41;;;;;;;36.83;22.83;;;;;;;16.78;57.70;100483.93;125890;1104;101758;-78
2023/03/22 10:32:26;;;;;;;35.73;21.17;;;;;;;16.68;56.48;100478.53;124119;1109;101951;-75
2023/03/22 10:35:01;;;;;;;35.13;20.60;;;;;;;16.63;55.66;100471.44;125791;1104;101814;-74
2023/03/22 10:37:36;;;;;;;38.20;20.60;;;;;;;16.68;55.32;100472.36;124332;1105;104255;-76
2023/03/22 10:40:18;;;;;;;35.50;19.63;;;;;;;16.76;55.78;100465.36;124412;1104;104185;-78
2023/03/22 10:42:55;;;;;;;32.23;18.93;;;;;;;16.88;55.94;100468.17;124549;1105;102266;-79
2023/03/22 10:45:34;;;;;;;31.50;19.83;;;;;;;17.00;55.84;100455.89;125322;1105;104300;-80
2023/03/22 10:48:28;;;;;;;40.13;20.23;;;;;;;17.14;55.60;100453.36;124398;1105;104193;-76
2023/03/22 10:51:04;;;;;;;30.87;18.20;;;;;;;17.24;55.12;100450.80;125164;1105;101842;-77
2023/03/22 10:53:40;;;;;;;29.73;18.20;;;;;;;17.18;53.78;100447.22;124157;1105;102279;-75
2023/03/22 10:56:19;;;;;;;32.30;18.65;;;;;;;17.18;53.84;100444.56;124121;1105;101980;-79
2023/03/22 10:59:41;;;;;;;;;;;;;;;;;;;;;
2023/03/22 11:02:34;;;;;;;33.57;19.47;;;;;;;17.19;53.19;100439.28;124036;1105;104291;-74
2023/03/22 11:05:25;;;;;;;33.50;20.17;;;;;;;17.15;52.87;100436.59;124141;1103;104737;-75
2023/03/22 11:08:10;;;;;;;30.47;18.93;;;;;;;17.15;52.54;100436.59;124086;1105;101817;-75
2023/03/22 11:11:24;;;;;;;;;;;;;;;;;;;;;
2023/03/22 11:51:34;;;;;;;25.57;15.03;;;;;;;17.82;49.46;100401.62;124795;1102;101994;-75
2023/03/22 11:54:23;;;;;;;28.23;15.37;;;;;;;17.87;49.28;100399.89;124540;1102;104313;-77
2023/03/22 11:57:02;;;;;;;30.70;17.37;;;;;;;17.88;48.40;100399.03;124607;1105;102206;-78
2023/03/22 11:59:56;;;;;;;26.27;16.57;;;;;;;17.84;47.73;100394.58;124734;1102;104192;-79
2023/03/22 12:02:47;;;;;;;29.60;16.23;;;;;;;17.84;47.68;100391.02;124525;1102;108246;-79
2023/03/22 12:05:40;;;;;;;29.27;14.93;;;;;;;17.87;48.20;100389.28;125893;1102;104278;-79
2023/03/22 12:08:27;;;;;;;27.43;15.63;;;;;;;17.91;47.63;100385.77;125541;1101;104179;-78
2023/03/22 12:11:15;;;;;;;28.77;16.03;;;;;;;17.98;47.15;100380.48;125808;1101;104169;-79
2023/03/22 12:13:55;;;;;;;26.50;15.77;;;;;;;18.06;47.04;100378.73;125050;1102;102216;-76
2023/03/22 12:16:49;;;;;;;27.13;16.13;;;;;;;18.12;47.16;100378.75;124454;1102;104342;-76
2023/03/22 12:20:02;;;;;;;26.23;14.83;;;;;;;18.21;47.34;100364.62;124276;1102;104255;-74
2023/03/22 12:23:09;;;;;;;;;;;;;;;;;;;;;
2023/03/22 12:26:19;;;;;;;29.90;16.23;;;;;;;18.54;47.02;100360.23;124173;1102;104163;-74
2023/03/22 12:29:10;;;;;;;26.53;15.97;;;;;;;18.70;46.84;100362.03;124483;1102;104313;-75
2023/03/22 12:32:03;;;;;;;26.60;14.37;;;;;;;18.84;46.68;100364.69;123990;1102;104172;-74
2023/03/22 12:35:07;;;;;;;29.07;14.77;;;;;;;19.04;46.35;100357.61;124190;1102;104277;-75
2023/03/22 12:38:03;;;;;;;27.67;15.13;;;;;;;19.24;46.71;100363.78;124133;1102;101984;-71
2023/03/22 12:40:42;;;;;;;23.70;14.33;;;;;;;19.36;46.49;100350.45;123988;1102;104253;-72
2023/03/22 12:43:27;;;;;;;27.17;14.43;;;;;;;19.43;45.87;100354.88;124272;1102;118179;-73
2023/03/22 12:46:05;;;;;;;26.60;14.70;;;;;;;19.49;45.96;100359.27;124037;1105;104278;-73
2023/03/22 12:48:45;;;;;;;26.47;15.03;;;;;;;19.51;44.78;100355.73;123976;1102;104210;-72
2023/03/22 12:51:17;;;;;;;25.87;15.17;;;;;;;19.48;44.91;100357.52;123952;1102;102155;-72
2023/03/22 12:53:52;;;;;;;25.93;15.40;;;;;;;19.46;44.38;100353.96;123949;1102;104309;-72
2023/03/22 12:56:42;;;;;;;27.57;15.87;;;;;;;19.36;44.23;100353.98;124152;1102;102827;-73
2023/03/22 12:59:20;;;;;;;28.90;15.77;;;;;;;19.21;43.31;100351.36;124128;1102;104172;-73
2023/03/22 13:01:59;;;;;;;26.57;14.70;;;;;;;19.17;43.55;100347.83;123939;1102;101857;-71
2023/03/22 13:04:49;;;;;;;33.40;15.17;;;;;;;19.10;44.07;100345.19;123940;1102;104280;-70
2023/03/22 13:07:38;;;;;;;28.43;15.93;;;;;;;18.93;43.54;100348.77;124498;1105;104217;-73
2023/03/22 13:10:50;;;;;;;30.80;15.67;;;;;;;18.71;42.83;100346.96;123929;1105;103158;-73
2023/03/22 13:13:42;;;;;;;30.00;16.00;;;;;;;18.52;43.48;100354.92;124098;1102;104246;-74